KNRB/NRB METAR and TAF weather

Enter ICAO airport designator
Station Type Date Time Source
KNRB METAR 2019/12/08 00:52 UTC NOAA

KNRB 080052Z AUTO 02013KT 10SM BKN110 17/14 A3022 RMK AO2 SLP234 T01720144


Station Type Date Time Source
KNRB Decoded METAR 2019/12/08 00:52 UTC NOAA

MAYPORT NAVAL AIR FACILITY, FL, United States (KNRB) 30-24N 81-25W 4M
Dec 07, 2019 - 07:52 PM EST / 2019.12.08 0052 UTC
Wind: from the NNE (020 degrees) at 15 MPH (13 KT):0
Visibility: 10 mile(s):0
Sky conditions: mostly cloudy
Temperature: 63.0 F (17.2 C)
Dew Point: 57.9 F (14.4 C)
Relative Humidity: 83%
Pressure (altimeter): 30.22 in. Hg (1023 hPa)
ob: KNRB 080052Z AUTO 02013KT 10SM BKN110 17/14 A3022 RMK AO2 SLP234 T01720144
cycle: 1

Station Type Date Time Source
KNRB TAF 2019/12/07 23:03 UTC NOAA

TAF KNRB 0723/0823 03010KT 9999 BKN250 QNH3012INS
FM081100 03012KT 9999 BKN040 BKN100 QNH3016INS
FM081300 03014KT 9999 BKN032 OVC050 QNH3018INS AUTOMATED SENSOR METWATCH 0723 TIL 0807 T13/0812Z T21/0821Z FN00194

Example: see airport list